Time;durP1;ratioP1;P1;durP2;ratioP2;P2;SDS_P1;SDS_P2;PMS_P1;PMS_P2;Temp;Humidity;BMP_temperature;BMP_pressure;BME280_temperature;BME280_humidity;BME280_pressure;Samples;Min_cycle;Max_cycle;Signal;HPM_P1;HPM_P2
2023/11/25 00:02:12;;;;;;;0.20;0.10;;;;;;;;;;5027511;28;20876;-86
2023/11/25 00:04:44;;;;;;;0.20;0.10;;;;;;;;;;5028641;28;20513;-86
2023/11/25 00:07:20;;;;;;;0.20;0.10;;;;;;;;;;5026972;28;20052;-86
2023/11/25 00:10:03;;;;;;;0.20;0.10;;;;;;;;;;5017721;28;20525;-86
2023/11/25 00:12:56;;;;;;;0.20;0.10;;;;;;;;;;5038234;28;20433;-85
2023/11/25 00:15:47;;;;;;;0.20;0.10;;;;;;;;;;5019578;28;20429;-85
2023/11/25 00:18:33;;;;;;;0.20;0.00;;;;;;;;;;5018038;28;20039;-86
2023/11/25 00:21:31;;;;;;;0.20;0.03;;;;;;;;;;5041072;28;20133;-85
2023/11/25 00:24:14;;;;;;;0.20;0.08;;;;;;;;;;5029120;28;20041;-86
2023/11/25 00:26:49;;;;;;;0.20;0.00;;;;;;;;;;5022158;28;20039;-86
2023/11/25 00:29:21;;;;;;;0.20;0.10;;;;;;;;;;5018793;28;20460;-85
2023/11/25 00:32:12;;;;;;;;;;;;;;;;;;;;;
2023/11/25 00:34:47;;;;;;;0.20;0.00;;;;;;;;;;5038221;28;20079;-86
2023/11/25 00:37:13;;;;;;;0.20;0.10;;;;;;;;;;5028908;28;20040;-86
2023/11/25 00:39:39;;;;;;;0.20;0.10;;;;;;;;;;5028407;28;20037;-85
2023/11/25 00:42:05;;;;;;;0.20;0.08;;;;;;;;;;5022984;28;20493;-85
2023/11/25 00:44:34;;;;;;;0.20;0.10;;;;;;;;;;5025158;28;20501;-86
2023/11/25 00:47:05;;;;;;;0.20;0.10;;;;;;;;;;5024931;28;20080;-89
2023/11/25 00:49:38;;;;;;;0.20;0.00;;;;;;;;;;5038004;28;20049;-86
2023/11/25 00:52:07;;;;;;;0.20;0.10;;;;;;;;;;5026311;28;20412;-86
2023/11/25 00:54:33;;;;;;;0.20;0.10;;;;;;;;;;5040229;23;20077;-84
2023/11/25 00:57:01;;;;;;;0.20;0.00;;;;;;;;;;5022452;28;20571;-83
2023/11/25 00:59:27;;;;;;;0.20;0.10;;;;;;;;;;5008594;28;20042;-83
2023/11/25 01:01:53;;;;;;;0.20;0.10;;;;;;;;;;5021734;28;20443;-84
2023/11/25 01:04:19;;;;;;;0.20;0.10;;;;;;;;;;5011451;28;20646;-84
2023/11/25 01:06:49;;;;;;;0.20;0.10;;;;;;;;;;5022775;28;20120;-84
2023/11/25 01:09:16;;;;;;;0.20;0.00;;;;;;;;;;5005188;28;20410;-85
2023/11/25 01:11:49;;;;;;;0.20;0.10;;;;;;;;;;5011888;28;20037;-81
2023/11/25 01:14:15;;;;;;;0.20;0.10;;;;;;;;;;5018234;28;20033;-84
2023/11/25 01:16:41;;;;;;;0.20;0.10;;;;;;;;;;5028733;28;20045;-81
2023/11/25 01:19:07;;;;;;;0.20;0.10;;;;;;;;;;5028439;28;20536;-83
2023/11/25 01:21:33;;;;;;;0.20;0.10;;;;;;;;;;5018441;28;20029;-82
2023/11/25 01:23:59;;;;;;;0.20;0.10;;;;;;;;;;5026715;28;20033;-82
2023/11/25 01:26:26;;;;;;;0.20;0.00;;;;;;;;;;5010313;28;20068;-82
2023/11/25 01:28:52;;;;;;;0.20;0.00;;;;;;;;;;5009754;28;20100;-83
2023/11/25 01:31:18;;;;;;;0.52;0.30;;;;;;;;;;5006274;28;20041;-84
2023/11/25 01:33:44;;;;;;;0.20;0.10;;;;;;;;;;5040330;28;20048;-82
2023/11/25 01:36:10;;;;;;;0.20;0.10;;;;;;;;;;5015276;28;20041;-82
2023/11/25 01:38:36;;;;;;;0.20;0.00;;;;;;;;;;5008019;28;20040;-82
2023/11/25 01:41:04;;;;;;;0.20;0.10;;;;;;;;;;5024427;28;20097;-83
2023/11/25 01:43:30;;;;;;;0.20;0.10;;;;;;;;;;5008698;28;20040;-83
2023/11/25 01:45:57;;;;;;;0.20;0.00;;;;;;;;;;5025154;28;20057;-82
2023/11/25 01:48:24;;;;;;;0.20;0.10;;;;;;;;;;5011189;28;20461;-83
2023/11/25 01:50:50;;;;;;;0.20;0.00;;;;;;;;;;5013033;28;20030;-82
2023/11/25 01:53:19;;;;;;;0.20;0.00;;;;;;;;;;5009550;28;20044;-82
2023/11/25 01:55:46;;;;;;;0.20;0.08;;;;;;;;;;5011869;28;20064;-84
2023/11/25 01:58:19;;;;;;;0.20;0.10;;;;;;;;;;5015145;28;20191;-82
2023/11/25 02:00:46;;;;;;;0.20;0.17;;;;;;;;;;5022969;28;20116;-82
2023/11/25 02:03:13;;;;;;;0.20;0.00;;;;;;;;;;5018915;28;20041;-82
2023/11/25 02:05:39;;;;;;;0.20;0.00;;;;;;;;;;5023700;28;20065;-81
2023/11/25 02:08:07;;;;;;;0.20;0.10;;;;;;;;;;5018983;28;20053;-82
2023/11/25 02:10:34;;;;;;;0.20;0.10;;;;;;;;;;5021885;28;20070;-82
2023/11/25 02:13:02;;;;;;;0.20;0.10;;;;;;;;;;5012617;28;20040;-83
2023/11/25 02:15:28;;;;;;;0.20;0.10;;;;;;;;;;5007272;28;20033;-82
2023/11/25 02:17:55;;;;;;;0.20;0.00;;;;;;;;;;5007539;28;20506;-82
2023/11/25 02:20:37;;;;;;;0.20;0.10;;;;;;;;;;5021881;28;20068;-82
2023/11/25 02:23:04;;;;;;;0.20;0.10;;;;;;;;;;5022612;28;20045;-82
2023/11/25 02:25:30;;;;;;;0.20;0.00;;;;;;;;;;5020171;28;20498;-82
2023/11/25 02:27:56;;;;;;;0.20;0.10;;;;;;;;;;5023863;28;20124;-82
2023/11/25 02:30:23;;;;;;;0.20;0.10;;;;;;;;;;5024603;28;20519;-82
2023/11/25 02:32:50;;;;;;;0.20;0.10;;;;;;;;;;5022615;28;20037;-82
2023/11/25 02:35:16;;;;;;;0.20;0.00;;;;;;;;;;5009282;28;20025;-82
2023/11/25 02:37:45;;;;;;;0.20;0.10;;;;;;;;;;5006873;28;20093;-82
2023/11/25 02:40:16;;;;;;;0.20;0.10;;;;;;;;;;5019236;28;20050;-83
2023/11/25 02:42:44;;;;;;;0.20;0.10;;;;;;;;;;5023964;28;20152;-83
2023/11/25 02:45:12;;;;;;;0.20;0.00;;;;;;;;;;5023449;28;20033;-82
2023/11/25 02:47:38;;;;;;;0.20;0.10;;;;;;;;;;5010067;28;20037;-82
2023/11/25 02:50:04;;;;;;;0.20;0.10;;;;;;;;;;5022568;28;20094;-82
2023/11/25 02:52:30;;;;;;;0.20;0.00;;;;;;;;;;5006858;28;20564;-82
2023/11/25 02:54:56;;;;;;;0.20;0.10;;;;;;;;;;5003950;28;20033;-82
2023/11/25 02:57:22;;;;;;;0.20;0.10;;;;;;;;;;5020104;28;20063;-82
2023/11/25 02:59:48;;;;;;;0.20;0.10;;;;;;;;;;5009025;28;20049;-81
2023/11/25 03:02:15;;;;;;;0.20;0.10;;;;;;;;;;5021889;28;20034;-82
2023/11/25 03:04:45;;;;;;;0.20;0.00;;;;;;;;;;5005809;28;20037;-82
2023/11/25 03:07:13;;;;;;;0.20;0.10;;;;;;;;;;5018461;28;20049;-82
2023/11/25 03:09:39;;;;;;;0.20;0.10;;;;;;;;;;5004196;28;20117;-82
2023/11/25 03:12:06;;;;;;;0.20;0.10;;;;;;;;;;5018227;28;20115;-82
2023/11/25 03:14:32;;;;;;;0.20;0.10;;;;;;;;;;5005038;28;20041;-82
2023/11/25 03:16:58;;;;;;;0.20;0.10;;;;;;;;;;5018894;28;20524;-82
2023/11/25 03:19:24;;;;;;;0.20;0.10;;;;;;;;;;5016068;28;20038;-81
2023/11/25 03:21:52;;;;;;;0.20;0.10;;;;;;;;;;5018737;28;20045;-81
2023/11/25 03:24:21;;;;;;;0.20;0.10;;;;;;;;;;5018036;28;20037;-82
2023/11/25 03:26:47;;;;;;;0.20;0.10;;;;;;;;;;5017859;28;20417;-83
2023/11/25 03:29:14;;;;;;;0.20;0.00;;;;;;;;;;5005453;28;20045;-82
2023/11/25 03:31:43;;;;;;;0.20;0.10;;;;;;;;;;5002407;28;20077;-81
2023/11/25 03:34:09;;;;;;;0.20;0.00;;;;;;;;;;4999058;28;20523;-82
2023/11/25 03:36:35;;;;;;;0.20;0.10;;;;;;;;;;5004522;28;20044;-82
2023/11/25 03:39:01;;;;;;;0.20;0.00;;;;;;;;;;5005500;28;20345;-82
2023/11/25 03:41:30;;;;;;;0.20;0.10;;;;;;;;;;5002794;28;20127;-82
2023/11/25 03:43:56;;;;;;;0.20;0.00;;;;;;;;;;5003865;28;20033;-83
2023/11/25 03:46:23;;;;;;;0.20;0.10;;;;;;;;;;5004563;28;20128;-84
2023/11/25 03:48:50;;;;;;;0.20;0.10;;;;;;;;;;5021333;28;20044;-82
2023/11/25 03:51:16;;;;;;;0.20;0.10;;;;;;;;;;5000955;28;20048;-83
2023/11/25 03:53:42;;;;;;;0.20;0.10;;;;;;;;;;5016388;28;20171;-83
2023/11/25 03:56:08;;;;;;;0.20;0.10;;;;;;;;;;5018463;28;20754;-82
2023/11/25 03:58:35;;;;;;;0.20;0.10;;;;;;;;;;5034046;28;20616;-82
2023/11/25 04:01:01;;;;;;;0.20;0.10;;;;;;;;;;5000145;28;20045;-82
2023/11/25 04:03:27;;;;;;;0.20;0.08;;;;;;;;;;5013986;28;20114;-81
2023/11/25 04:05:53;;;;;;;0.20;0.10;;;;;;;;;;5019364;28;20053;-82
2023/11/25 04:08:21;;;;;;;0.20;0.10;;;;;;;;;;5006587;28;20129;-82
2023/11/25 04:10:47;;;;;;;0.20;0.10;;;;;;;;;;5005368;28;20041;-83
2023/11/25 04:13:13;;;;;;;0.20;0.00;;;;;;;;;;5005828;28;20048;-82
2023/11/25 04:15:40;;;;;;;0.20;0.10;;;;;;;;;;5005937;28;20087;-82
2023/11/25 04:18:06;;;;;;;0.20;0.10;;;;;;;;;;5018987;28;20045;-82
2023/11/25 04:20:33;;;;;;;0.20;0.10;;;;;;;;;;5014025;28;21650;-83
2023/11/25 04:23:05;;;;;;;0.20;0.05;;;;;;;;;;5014560;28;20061;-83
2023/11/25 04:25:32;;;;;;;0.20;0.10;;;;;;;;;;4997194;28;20042;-83
2023/11/25 04:27:58;;;;;;;0.20;0.10;;;;;;;;;;5002596;28;20038;-83
2023/11/25 04:30:24;;;;;;;0.20;0.00;;;;;;;;;;5002935;28;20037;-83
2023/11/25 04:32:51;;;;;;;0.20;0.10;;;;;;;;;;4999585;28;20077;-85
2023/11/25 04:35:17;;;;;;;0.20;0.00;;;;;;;;;;5020327;28;20046;-84
2023/11/25 04:37:45;;;;;;;0.20;0.10;;;;;;;;;;5005902;28;20053;-84
2023/11/25 04:40:14;;;;;;;0.20;0.10;;;;;;;;;;5024960;28;20046;-84
2023/11/25 04:42:41;;;;;;;0.20;0.10;;;;;;;;;;5022957;28;20044;-83
2023/11/25 04:45:15;;;;;;;0.20;0.10;;;;;;;;;;5023166;28;20510;-84
2023/11/25 04:47:41;;;;;;;0.20;0.10;;;;;;;;;;5024446;28;20099;-86
2023/11/25 04:50:08;;;;;;;0.20;0.10;;;;;;;;;;5010263;28;20397;-84
2023/11/25 04:52:35;;;;;;;0.20;0.00;;;;;;;;;;5004250;28;20068;-82
2023/11/25 04:55:02;;;;;;;0.20;0.10;;;;;;;;;;5019165;28;20046;-85
2023/11/25 04:57:29;;;;;;;0.20;0.10;;;;;;;;;;5003624;28;20048;-82
2023/11/25 04:59:55;;;;;;;0.20;0.10;;;;;;;;;;5009001;28;20061;-84
2023/11/25 05:02:21;;;;;;;0.20;0.10;;;;;;;;;;5011017;28;20040;-85
2023/11/25 05:04:47;;;;;;;0.20;0.03;;;;;;;;;;5008457;28;20037;-84
2023/11/25 05:07:13;;;;;;;0.32;0.30;;;;;;;;;;5009079;28;20055;-83
2023/11/25 05:09:41;;;;;;;0.20;0.10;;;;;;;;;;5004901;28;20034;-84
2023/11/25 05:12:07;;;;;;;0.20;0.00;;;;;;;;;;5004755;28;20096;-84
2023/11/25 05:14:33;;;;;;;0.20;0.00;;;;;;;;;;5005553;28;20041;-85
2023/11/25 05:17:00;;;;;;;1.85;1.75;;;;;;;;;;5006684;28;20128;-84
2023/11/25 05:19:26;;;;;;;0.20;0.00;;;;;;;;;;5005317;28;20068;-86
2023/11/25 05:21:52;;;;;;;0.20;0.00;;;;;;;;;;5027763;28;20117;-83
2023/11/25 05:24:19;;;;;;;0.20;0.10;;;;;;;;;;5012175;28;20041;-85
2023/11/25 05:26:45;;;;;;;0.20;0.00;;;;;;;;;;5014327;28;20482;-84
2023/11/25 05:29:12;;;;;;;0.20;0.10;;;;;;;;;;5032273;28;20052;-86
2023/11/25 05:31:38;;;;;;;0.20;0.00;;;;;;;;;;5018210;28;20736;-86
2023/11/25 05:34:05;;;;;;;0.20;0.10;;;;;;;;;;5018299;28;20151;-86
2023/11/25 05:36:34;;;;;;;0.30;0.30;;;;;;;;;;5030513;28;20041;-87
2023/11/25 05:39:06;;;;;;;0.20;0.10;;;;;;;;;;5011339;28;20052;-83
2023/11/25 05:41:40;;;;;;;0.20;0.10;;;;;;;;;;5028149;28;20036;-86
2023/11/25 05:44:10;;;;;;;0.20;0.10;;;;;;;;;;5009172;28;20037;-83
2023/11/25 05:46:36;;;;;;;0.20;0.10;;;;;;;;;;5011820;28;20092;-87
2023/11/25 05:49:04;;;;;;;0.20;0.10;;;;;;;;;;5018642;28;20038;-84
2023/11/25 05:51:43;;;;;;;0.20;0.10;;;;;;;;;;5003104;28;20079;-83
2023/11/25 05:54:12;;;;;;;0.20;0.10;;;;;;;;;;5005170;28;20053;-85
2023/11/25 05:56:39;;;;;;;0.20;0.10;;;;;;;;;;5012266;28;20037;-84
2023/11/25 05:59:07;;;;;;;0.20;0.10;;;;;;;;;;5021451;28;20124;-84
2023/11/25 06:01:34;;;;;;;0.20;0.10;;;;;;;;;;5011846;28;20501;-85
2023/11/25 06:04:00;;;;;;;0.20;0.10;;;;;;;;;;5008746;28;20587;-85
2023/11/25 06:06:26;;;;;;;0.20;0.10;;;;;;;;;;5007441;28;20124;-84
2023/11/25 06:08:55;;;;;;;0.20;0.10;;;;;;;;;;5022694;28;20064;-85
2023/11/25 06:11:22;;;;;;;0.20;0.10;;;;;;;;;;5007421;28;20501;-85
2023/11/25 06:13:49;;;;;;;0.20;0.10;;;;;;;;;;5021958;28;20481;-83
2023/11/25 06:16:15;;;;;;;0.20;0.10;;;;;;;;;;5024543;28;20087;-82
2023/11/25 06:18:44;;;;;;;0.20;0.10;;;;;;;;;;5009494;28;20065;-86
2023/11/25 06:21:10;;;;;;;0.20;0.10;;;;;;;;;;5019115;28;20413;-86
2023/11/25 06:23:36;;;;;;;0.20;0.10;;;;;;;;;;5024559;28;20110;-86
2023/11/25 06:26:10;;;;;;;0.20;0.05;;;;;;;;;;5029054;28;20040;-89
2023/11/25 06:28:42;;;;;;;0.20;0.10;;;;;;;;;;5018551;28;20046;-88
2023/11/25 06:31:15;;;;;;;0.20;0.10;;;;;;;;;;5009489;28;20077;-85
2023/11/25 06:33:41;;;;;;;0.20;0.10;;;;;;;;;;4999638;28;20131;-87
2023/11/25 06:36:22;;;;;;;0.20;0.00;;;;;;;;;;5011535;28;20502;-88
2023/11/25 06:38:50;;;;;;;0.20;0.10;;;;;;;;;;5009086;28;20034;-89
2023/11/25 06:41:27;;;;;;;0.20;0.10;;;;;;;;;;5021110;28;20042;-86
2023/11/25 06:43:53;;;;;;;0.20;0.10;;;;;;;;;;5006687;28;20120;-85
2023/11/25 06:46:22;;;;;;;0.20;0.10;;;;;;;;;;5022722;28;20045;-87
2023/11/25 06:48:48;;;;;;;0.20;0.10;;;;;;;;;;5005410;28;20046;-84
2023/11/25 06:51:14;;;;;;;0.20;0.10;;;;;;;;;;5005042;28;20446;-87
2023/11/25 06:53:40;;;;;;;0.20;0.10;;;;;;;;;;5024279;28;20080;-84
2023/11/25 06:56:16;;;;;;;0.20;0.10;;;;;;;;;;5017731;28;20103;-85
2023/11/25 06:58:42;;;;;;;0.20;0.10;;;;;;;;;;5003726;28;20046;-86
2023/11/25 07:01:09;;;;;;;0.20;0.10;;;;;;;;;;5008328;28;20608;-87
2023/11/25 07:03:35;;;;;;;0.20;0.00;;;;;;;;;;5010507;28;20047;-87
2023/11/25 07:06:32;;;;;;;0.20;0.10;;;;;;;;;;4987096;28;20045;-87
2023/11/25 07:09:00;;;;;;;0.20;0.10;;;;;;;;;;5021654;28;20390;-87
2023/11/25 07:11:35;;;;;;;0.20;0.10;;;;;;;;;;5005187;28;20391;-86
2023/11/25 07:14:03;;;;;;;0.20;0.10;;;;;;;;;;5001387;28;20049;-85
2023/11/25 07:16:29;;;;;;;0.20;0.10;;;;;;;;;;5007179;28;20053;-85
2023/11/25 07:19:08;;;;;;;0.20;0.10;;;;;;;;;;5010212;28;20044;-85
2023/11/25 07:22:00;;;;;;;0.20;0.10;;;;;;;;;;5023091;28;20126;-86
2023/11/25 07:24:55;;;;;;;0.20;0.10;;;;;;;;;;4999676;28;20081;-84
2023/11/25 07:27:24;;;;;;;0.20;0.00;;;;;;;;;;5006843;28;20131;-84
2023/11/25 07:29:54;;;;;;;0.20;0.10;;;;;;;;;;5021324;28;20033;-86
2023/11/25 07:32:22;;;;;;;0.20;0.10;;;;;;;;;;5004110;28;20033;-86
2023/11/25 07:34:55;;;;;;;0.20;0.03;;;;;;;;;;5006433;28;20041;-85
2023/11/25 07:37:38;;;;;;;0.20;0.10;;;;;;;;;;5019749;28;20064;-85
2023/11/25 07:40:17;;;;;;;0.20;0.03;;;;;;;;;;5020235;28;20469;-86
2023/11/25 07:43:07;;;;;;;0.20;0.10;;;;;;;;;;5002644;28;20072;-86
2023/11/25 07:45:41;;;;;;;0.20;0.10;;;;;;;;;;5038146;28;20050;-87
2023/11/25 07:48:10;;;;;;;0.20;0.10;;;;;;;;;;5022604;28;20041;-85
2023/11/25 07:50:45;;;;;;;0.20;0.10;;;;;;;;;;5004718;28;20034;-84
2023/11/25 07:53:11;;;;;;;0.20;0.10;;;;;;;;;;5005497;28;20052;-86
2023/11/25 07:55:37;;;;;;;0.20;0.10;;;;;;;;;;5005937;28;20895;-84
2023/11/25 07:58:05;;;;;;;0.20;0.08;;;;;;;;;;5019740;28;20131;-86
2023/11/25 08:00:31;;;;;;;0.20;0.10;;;;;;;;;;5040832;28;20048;-85
2023/11/25 08:02:58;;;;;;;0.20;0.10;;;;;;;;;;5007293;28;20050;-86
2023/11/25 08:05:25;;;;;;;0.20;0.10;;;;;;;;;;5023991;28;20037;-85
2023/11/25 08:07:54;;;;;;;0.20;0.10;;;;;;;;;;5009008;28;20072;-85
2023/11/25 08:10:21;;;;;;;0.20;0.10;;;;;;;;;;5005332;28;20045;-85
2023/11/25 08:12:47;;;;;;;0.20;0.10;;;;;;;;;;5010452;28;20080;-87
2023/11/25 08:15:14;;;;;;;0.20;0.00;;;;;;;;;;5003191;28;20068;-85
2023/11/25 08:17:43;;;;;;;0.20;0.00;;;;;;;;;;5034212;28;20061;-84
2023/11/25 08:20:12;;;;;;;0.20;0.10;;;;;;;;;;5023875;28;20079;-86
2023/11/25 08:22:39;;;;;;;0.20;0.00;;;;;;;;;;5009087;28;20045;-84
2023/11/25 08:25:07;;;;;;;0.20;0.10;;;;;;;;;;5008026;28;20033;-85
2023/11/25 08:27:34;;;;;;;0.20;0.10;;;;;;;;;;5019727;28;20029;-86
2023/11/25 08:30:00;;;;;;;0.20;0.10;;;;;;;;;;5018871;28;20490;-85
2023/11/25 08:32:26;;;;;;;0.20;0.10;;;;;;;;;;5017039;28;20085;-85
2023/11/25 08:34:53;;;;;;;0.20;0.10;;;;;;;;;;5009920;28;20049;-86
2023/11/25 08:37:27;;;;;;;0.20;0.00;;;;;;;;;;5008231;28;20271;-86
2023/11/25 08:39:55;;;;;;;0.20;0.10;;;;;;;;;;5005293;28;20045;-86
2023/11/25 08:42:26;;;;;;;0.20;0.00;;;;;;;;;;5009611;28;20457;-85
2023/11/25 08:44:52;;;;;;;0.20;0.00;;;;;;;;;;5016595;28;20125;-85
2023/11/25 08:47:18;;;;;;;0.20;0.00;;;;;;;;;;5003110;28;20469;-86
2023/11/25 08:49:49;;;;;;;0.20;0.10;;;;;;;;;;5015206;28;20041;-85
2023/11/25 08:52:15;;;;;;;0.20;0.10;;;;;;;;;;5017661;28;20573;-87
2023/11/25 08:54:41;;;;;;;0.32;0.28;;;;;;;;;;5018030;28;20052;-86
2023/11/25 08:57:08;;;;;;;0.20;0.10;;;;;;;;;;5003111;28;20395;-85
2023/11/25 08:59:34;;;;;;;0.20;0.10;;;;;;;;;;5015027;28;20049;-85
2023/11/25 09:02:03;;;;;;;0.20;0.10;;;;;;;;;;5018238;28;20030;-84
2023/11/25 09:04:35;;;;;;;0.20;0.10;;;;;;;;;;5004823;28;20083;-86
2023/11/25 09:07:01;;;;;;;0.20;0.10;;;;;;;;;;5014044;28;20052;-82
2023/11/25 09:09:27;;;;;;;0.20;0.08;;;;;;;;;;5000701;28;20045;-85
2023/11/25 09:11:56;;;;;;;0.20;0.10;;;;;;;;;;4998905;28;20096;-82
2023/11/25 09:14:22;;;;;;;0.20;0.10;;;;;;;;;;5015875;28;20080;-85
2023/11/25 09:16:50;;;;;;;0.20;0.10;;;;;;;;;;5017932;28;20040;-85
2023/11/25 09:19:17;;;;;;;0.20;0.10;;;;;;;;;;5020574;28;20055;-83
2023/11/25 09:21:44;;;;;;;0.20;0.00;;;;;;;;;;5005565;28;21145;-82
2023/11/25 09:24:13;;;;;;;0.20;0.10;;;;;;;;;;5015201;28;20048;-82
2023/11/25 09:26:39;;;;;;;0.20;0.10;;;;;;;;;;5020081;28;20029;-83
2023/11/25 09:29:05;;;;;;;0.20;0.00;;;;;;;;;;5020107;28;20049;-83
2023/11/25 09:31:32;;;;;;;0.20;0.10;;;;;;;;;;5017575;28;21525;-84
2023/11/25 09:33:59;;;;;;;0.20;0.00;;;;;;;;;;5021640;28;20094;-84
2023/11/25 09:36:25;;;;;;;0.20;0.10;;;;;;;;;;5037478;28;20053;-82
2023/11/25 09:38:52;;;;;;;0.20;0.00;;;;;;;;;;5006746;28;20906;-85
2023/11/25 09:41:18;;;;;;;0.20;0.10;;;;;;;;;;5003961;28;20033;-84
2023/11/25 09:43:47;;;;;;;0.20;0.00;;;;;;;;;;5019796;28;20034;-84
2023/11/25 09:46:14;;;;;;;0.20;0.00;;;;;;;;;;5006585;28;20080;-84
2023/11/25 09:48:40;;;;;;;0.20;0.10;;;;;;;;;;5031960;28;20041;-82
2023/11/25 09:51:08;;;;;;;0.20;0.00;;;;;;;;;;5032083;28;20037;-84
2023/11/25 09:53:37;;;;;;;0.20;0.00;;;;;;;;;;5020478;28;20048;-84
2023/11/25 09:56:04;;;;;;;0.20;0.00;;;;;;;;;;5033249;28;20045;-84
2023/11/25 09:58:33;;;;;;;0.20;0.10;;;;;;;;;;5029182;28;20418;-82
2023/11/25 10:00:59;;;;;;;0.20;0.00;;;;;;;;;;5031712;28;20096;-84
2023/11/25 10:03:32;;;;;;;0.20;0.10;;;;;;;;;;5017432;28;20041;-83
2023/11/25 10:05:58;;;;;;;;;;;;;;;;;;5029202;28;20034;-83
2023/11/25 10:08:24;;;;;;;0.20;0.10;;;;;;;;;;5012789;28;19923;-82
2023/11/25 10:11:07;;;;;;;0.20;0.10;;;;;;;;;;5032546;28;20352;-82
2023/11/25 10:13:38;;;;;;;0.20;0.10;;;;;;;;;;5039657;28;20038;-84
2023/11/25 10:16:06;;;;;;;0.20;0.10;;;;;;;;;;5003732;28;20075;-87
2023/11/25 10:18:39;;;;;;;0.20;0.00;;;;;;;;;;5043559;28;20112;-83
2023/11/25 10:21:06;;;;;;;0.20;0.00;;;;;;;;;;5028526;28;20041;-83
2023/11/25 10:23:32;;;;;;;0.20;0.10;;;;;;;;;;5009419;28;20038;-85
2023/11/25 10:26:03;;;;;;;0.20;0.10;;;;;;;;;;5025477;28;20051;-83
2023/11/25 10:28:32;;;;;;;0.20;0.10;;;;;;;;;;5026146;28;20032;-82
2023/11/25 10:31:04;;;;;;;0.20;0.00;;;;;;;;;;5019139;28;20053;-83
2023/11/25 10:33:30;;;;;;;0.20;0.10;;;;;;;;;;5004456;28;20523;-84
2023/11/25 10:35:57;;;;;;;0.20;0.10;;;;;;;;;;5022967;28;20112;-81
2023/11/25 10:38:27;;;;;;;0.20;0.10;;;;;;;;;;5022641;28;20038;-81
2023/11/25 10:40:59;;;;;;;0.20;0.08;;;;;;;;;;5022146;28;20037;-81
2023/11/25 10:43:26;;;;;;;0.20;0.00;;;;;;;;;;5023419;28;20137;-85
2023/11/25 10:46:05;;;;;;;0.20;0.10;;;;;;;;;;5019212;28;20171;-84
2023/11/25 10:48:32;;;;;;;0.20;0.10;;;;;;;;;;5006045;28;20216;-84
2023/11/25 10:50:58;;;;;;;0.20;0.10;;;;;;;;;;5006320;28;20038;-81
2023/11/25 10:53:30;;;;;;;0.20;0.10;;;;;;;;;;5017495;28;20052;-84
2023/11/25 10:55:58;;;;;;;0.20;0.10;;;;;;;;;;5005711;28;20038;-84
2023/11/25 10:58:25;;;;;;;0.20;0.10;;;;;;;;;;5030577;28;20812;-84
2023/11/25 11:00:55;;;;;;;0.60;0.52;;;;;;;;;;5016011;28;20116;-87
2023/11/25 11:03:22;;;;;;;0.20;0.00;;;;;;;;;;5006831;28;20541;-83
2023/11/25 11:05:53;;;;;;;0.20;0.10;;;;;;;;;;5021444;28;20034;-83
2023/11/25 11:08:25;;;;;;;0.20;0.00;;;;;;;;;;5019538;28;20049;-84
2023/11/25 11:10:54;;;;;;;0.20;0.00;;;;;;;;;;5005820;28;20533;-85
2023/11/25 11:13:26;;;;;;;0.20;0.10;;;;;;;;;;5003515;28;20041;-84
2023/11/25 11:16:12;;;;;;;0.20;0.10;;;;;;;;;;5019039;28;20033;-85
2023/11/25 11:18:41;;;;;;;0.20;0.00;;;;;;;;;;5023867;28;20072;-84
2023/11/25 11:21:08;;;;;;;0.20;0.10;;;;;;;;;;5008371;28;20041;-83
2023/11/25 11:23:37;;;;;;;0.20;0.00;;;;;;;;;;5025525;28;20041;-85
2023/11/25 11:26:23;;;;;;;0.20;0.00;;;;;;;;;;5010241;28;20029;-83
2023/11/25 11:28:58;;;;;;;0.20;0.00;;;;;;;;;;5007535;28;20072;-87
2023/11/25 11:31:33;;;;;;;0.20;0.10;;;;;;;;;;5008927;28;20062;-85
2023/11/25 11:34:01;;;;;;;0.20;0.00;;;;;;;;;;5021237;28;20453;-84
2023/11/25 11:36:30;;;;;;;0.20;0.10;;;;;;;;;;5006390;28;20045;-84
2023/11/25 11:38:56;;;;;;;0.20;0.10;;;;;;;;;;5003674;28;20117;-84
2023/11/25 11:41:22;;;;;;;0.20;0.00;;;;;;;;;;5017972;28;20538;-84
2023/11/25 11:44:02;;;;;;;0.20;0.00;;;;;;;;;;5023574;28;20033;-84
2023/11/25 11:46:30;;;;;;;0.20;0.05;;;;;;;;;;5012042;28;20909;-83
2023/11/25 11:48:57;;;;;;;0.20;0.00;;;;;;;;;;5011881;28;20037;-86
2023/11/25 11:51:26;;;;;;;0.20;0.10;;;;;;;;;;5007594;28;20040;-85
2023/11/25 11:54:11;;;;;;;0.20;0.00;;;;;;;;;;5012744;28;20401;-84
2023/11/25 11:56:55;;;;;;;0.20;0.00;;;;;;;;;;5024172;28;20132;-86
2023/11/25 11:59:22;;;;;;;0.20;0.00;;;;;;;;;;5010049;28;20690;-83
2023/11/25 12:01:48;;;;;;;0.20;0.00;;;;;;;;;;5008179;28;20034;-84
2023/11/25 12:04:16;;;;;;;0.20;0.10;;;;;;;;;;5006605;28;20116;-86
2023/11/25 12:06:42;;;;;;;0.20;0.10;;;;;;;;;;5018672;28;20116;-85
2023/11/25 12:09:08;;;;;;;0.20;0.00;;;;;;;;;;5003649;28;20064;-85
2023/11/25 12:11:39;;;;;;;0.20;0.00;;;;;;;;;;5009320;28;20068;-81
2023/11/25 12:14:06;;;;;;;0.20;0.00;;;;;;;;;;5008641;28;20088;-84
2023/11/25 12:16:33;;;;;;;0.20;0.10;;;;;;;;;;5022034;28;20037;-86
2023/11/25 12:18:59;;;;;;;0.20;0.00;;;;;;;;;;5036457;28;20047;-86
2023/11/25 12:21:28;;;;;;;0.20;0.00;;;;;;;;;;5009246;28;20041;-87
2023/11/25 12:23:54;;;;;;;0.20;0.00;;;;;;;;;;5019515;28;20042;-85
2023/11/25 12:26:22;;;;;;;0.63;0.20;;;;;;;;;;5009078;28;20037;-85
2023/11/25 12:28:48;;;;;;;0.20;0.10;;;;;;;;;;5023443;28;20052;-86
2023/11/25 12:31:14;;;;;;;0.20;0.10;;;;;;;;;;5004120;28;20041;-84
2023/11/25 12:33:40;;;;;;;0.20;0.10;;;;;;;;;;5004952;28;20132;-84
2023/11/25 12:36:07;;;;;;;0.20;0.00;;;;;;;;;;5008769;28;20625;-84
2023/11/25 12:38:34;;;;;;;0.20;0.00;;;;;;;;;;5008995;28;20049;-84
2023/11/25 12:41:10;;;;;;;0.20;0.10;;;;;;;;;;5018784;28;20037;-84
2023/11/25 12:43:59;;;;;;;0.20;0.00;;;;;;;;;;5022500;28;20448;-84
2023/11/25 12:46:31;;;;;;;0.20;0.08;;;;;;;;;;5008145;28;21442;-85
2023/11/25 12:49:00;;;;;;;0.20;0.00;;;;;;;;;;5001397;28;20523;-83
2023/11/25 12:51:26;;;;;;;0.20;0.10;;;;;;;;;;5019884;28;20099;-84
2023/11/25 12:53:55;;;;;;;0.20;0.10;;;;;;;;;;5041919;23;20535;-86
2023/11/25 12:56:30;;;;;;;0.20;0.10;;;;;;;;;;4968197;28;20049;-89
2023/11/25 12:58:59;;;;;;;0.20;0.00;;;;;;;;;;4983513;28;20035;-84
2023/11/25 13:01:25;;;;;;;0.20;0.10;;;;;;;;;;4988355;28;20053;-86
2023/11/25 13:03:56;;;;;;;0.20;0.10;;;;;;;;;;4975866;28;20129;-87
2023/11/25 13:06:25;;;;;;;0.20;0.00;;;;;;;;;;4977698;28;20034;-86
2023/11/25 13:08:52;;;;;;;0.20;0.00;;;;;;;;;;4974766;28;20778;-86
2023/11/25 13:11:18;;;;;;;0.20;0.00;;;;;;;;;;4976231;28;20394;-86
2023/11/25 13:13:45;;;;;;;0.20;0.00;;;;;;;;;;4979185;28;20043;-87
2023/11/25 13:16:12;;;;;;;0.20;0.00;;;;;;;;;;4987245;28;20050;-85
2023/11/25 13:18:38;;;;;;;0.20;0.10;;;;;;;;;;4976336;28;20043;-86
2023/11/25 13:21:06;;;;;;;0.20;0.00;;;;;;;;;;4970703;28;20523;-87
2023/11/25 13:23:36;;;;;;;0.20;0.10;;;;;;;;;;4972199;28;20034;-86
2023/11/25 13:26:15;;;;;;;0.20;0.00;;;;;;;;;;4975967;28;20454;-87
2023/11/25 13:28:50;;;;;;;0.20;0.10;;;;;;;;;;4968112;28;20423;-88
2023/11/25 13:31:16;;;;;;;0.20;0.10;;;;;;;;;;4975239;28;20089;-85
2023/11/25 13:33:42;;;;;;;0.20;0.10;;;;;;;;;;4977814;28;20184;-87
2023/11/25 13:36:11;;;;;;;0.20;0.10;;;;;;;;;;4987779;28;20518;-85
2023/11/25 13:38:38;;;;;;;0.20;0.10;;;;;;;;;;4972777;28;20034;-86
2023/11/25 13:41:04;;;;;;;0.20;0.10;;;;;;;;;;4974940;28;20072;-85
2023/11/25 13:43:31;;;;;;;0.20;0.10;;;;;;;;;;4976708;28;20038;-85
2023/11/25 13:45:57;;;;;;;0.20;0.10;;;;;;;;;;4976336;28;20081;-87
2023/11/25 13:48:53;;;;;;;;;;;;;;;;;;;;;
2023/11/25 13:51:15;;;;;;;0.20;0.00;;;;;;;;;;4989860;28;20049;-85
2023/11/25 13:53:41;;;;;;;0.20;0.10;;;;;;;;;;4971297;28;20570;-82
2023/11/25 13:56:08;;;;;;;0.20;0.00;;;;;;;;;;4972174;28;20046;-86
2023/11/25 13:58:34;;;;;;;0.20;0.00;;;;;;;;;;4970589;28;20797;-86
2023/11/25 14:01:00;;;;;;;0.20;0.10;;;;;;;;;;4971074;28;20046;-85
2023/11/25 14:03:26;;;;;;;0.20;0.00;;;;;;;;;;4987430;28;20041;-86
2023/11/25 14:05:55;;;;;;;0.20;0.10;;;;;;;;;;4972281;28;20069;-85
2023/11/25 14:08:27;;;;;;;0.20;0.00;;;;;;;;;;4969728;28;20113;-86
2023/11/25 14:10:54;;;;;;;;;;;;;;;;;;4971454;28;20030;-87
2023/11/25 14:13:23;;;;;;;0.20;0.00;;;;;;;;;;4984368;28;19979;-86
2023/11/25 14:15:49;;;;;;;0.20;0.10;;;;;;;;;;4971000;28;20046;-87
2023/11/25 14:18:18;;;;;;;0.20;0.00;;;;;;;;;;4972925;28;20034;-85
2023/11/25 14:20:44;;;;;;;0.20;0.03;;;;;;;;;;4984368;28;20043;-86
2023/11/25 14:23:10;;;;;;;0.20;0.10;;;;;;;;;;4970548;28;20129;-85
2023/11/25 14:25:36;;;;;;;0.20;0.00;;;;;;;;;;4966664;28;20049;-86
2023/11/25 14:28:02;;;;;;;0.20;0.10;;;;;;;;;;4973442;28;20077;-86
2023/11/25 14:30:30;;;;;;;0.20;0.10;;;;;;;;;;4970947;28;20068;-88
2023/11/25 14:33:00;;;;;;;0.20;0.10;;;;;;;;;;4982856;28;20094;-86
2023/11/25 14:35:29;;;;;;;0.20;0.10;;;;;;;;;;4973255;28;20046;-88
2023/11/25 14:38:11;;;;;;;0.20;0.10;;;;;;;;;;4986556;28;20121;-86
2023/11/25 14:41:03;;;;;;;0.20;0.00;;;;;;;;;;4971804;28;20046;-88
2023/11/25 14:43:55;;;;;;;;;;;;;;;;;;;;;
2023/11/25 14:46:28;;;;;;;0.20;0.00;;;;;;;;;;5003947;28;20088;-84
2023/11/25 14:59:05;;;;;;;0.20;0.00;;;;;;;;;;4977893;28;20049;-89
2023/11/25 15:08:58;;;;;;;0.20;0.00;;;;;;;;;;4857259;29;20578;-89
2023/11/25 15:11:45;;;;;;;0.20;0.03;;;;;;;;;;4988122;28;20037;-88
2023/11/25 15:14:21;;;;;;;0.20;0.00;;;;;;;;;;4981162;23;20042;-89
2023/11/25 15:16:53;;;;;;;0.20;0.00;;;;;;;;;;4982021;28;20050;-88